Time;durP1;ratioP1;P1;durP2;ratioP2;P2;SDS_P1;SDS_P2;PMS_P1;PMS_P2;Temp;Humidity;BMP_temperature;BMP_pressure;BME280_temperature;BME280_humidity;BME280_pressure;Samples;Min_cycle;Max_cycle;Signal;HPM_P1;HPM_P2
2022/12/22 03:26:00;;;;;;;1.3;1.3;;;;;;;9.3;100.0;100030;;;;
2022/12/22 03:27:00;;;;;;;1.3;1.3;;;;;;;9.3;100.0;100030;;;;
2022/12/22 03:28:02;;;;;;;1.3;1.3;;;;;;;9.3;100.0;100020;;;;
2022/12/22 03:29:00;;;;;;;1.3;1.3;;;;;;;9.3;100.0;100020;;;;
2022/12/22 03:30:00;;;;;;;1.3;1.3;;;;;;;9.3;100.0;100020;;;;
2022/12/22 03:31:02;;;;;;;1.3;1.3;;;;;;;9.3;100.0;100020;;;;
2022/12/22 03:32:00;;;;;;;1.0;1.0;;;;;;;9.3;100.0;100020;;;;
2022/12/22 03:33:00;;;;;;;1.0;1.0;;;;;;;9.3;100.0;100020;;;;
2022/12/22 03:34:00;;;;;;;1.0;1.0;;;;;;;9.3;100.0;100020;;;;
2022/12/22 03:35:00;;;;;;;1.0;1.0;;;;;;;9.3;100.0;100020;;;;
2022/12/22 03:36:00;;;;;;;1.0;1.0;;;;;;;9.4;100.0;100010;;;;
2022/12/22 03:37:00;;;;;;;1.0;1.0;;;;;;;9.4;100.0;100010;;;;
2022/12/22 03:38:02;;;;;;;1.0;1.0;;;;;;;9.4;100.0;100010;;;;
2022/12/22 03:39:00;;;;;;;1.0;1.0;;;;;;;9.4;100.0;100010;;;;
2022/12/22 03:40:00;;;;;;;1.0;1.0;;;;;;;9.4;100.0;100010;;;;
2022/12/22 03:41:00;;;;;;;1.0;1.0;;;;;;;9.4;100.0;100010;;;;
2022/12/22 03:47:00;;;;;;;1.0;1.0;;;;;;;9.4;100.0;100000;;;;
2022/12/22 03:48:00;;;;;;;1.0;1.0;;;;;;;9.4;100.0;100000;;;;
2022/12/22 03:50:00;;;;;;;1.0;1.0;;;;;;;9.3;100.0;100000;;;;
2022/12/22 03:51:00;;;;;;;1.0;1.0;;;;;;;9.3;100.0;100000;;;;
2022/12/22 03:52:00;;;;;;;0.9;0.9;;;;;;;9.4;100.0;100000;;;;
2022/12/22 03:53:00;;;;;;;0.9;0.9;;;;;;;9.4;100.0;100000;;;;
2022/12/22 03:54:00;;;;;;;0.9;0.9;;;;;;;9.3;100.0;100000;;;;
2022/12/22 03:55:00;;;;;;;0.9;0.9;;;;;;;9.3;100.0;100000;;;;
2022/12/22 03:56:07;;;;;;;0.9;0.9;;;;;;;9.3;100.0;99990;;;;
2022/12/22 03:57:00;;;;;;;0.9;0.9;;;;;;;9.3;100.0;99990;;;;
2022/12/22 03:58:00;;;;;;;0.9;0.9;;;;;;;9.2;100.0;99990;;;;
2022/12/22 03:59:00;;;;;;;0.9;0.9;;;;;;;9.2;100.0;99990;;;;
2022/12/22 04:00:00;;;;;;;0.9;0.9;;;;;;;9.4;100.0;99990;;;;
2022/12/22 04:01:05;;;;;;;0.9;0.9;;;;;;;9.4;100.0;99990;;;;
2022/12/22 04:02:00;;;;;;;0.9;0.9;;;;;;;9.4;100.0;99990;;;;
2022/12/22 04:03:00;;;;;;;0.9;0.9;;;;;;;9.4;100.0;99990;;;;
2022/12/22 04:04:00;;;;;;;0.9;0.9;;;;;;;9.3;100.0;99980;;;;
2022/12/22 04:05:00;;;;;;;0.9;0.9;;;;;;;9.3;100.0;99980;;;;
2022/12/22 04:06:00;;;;;;;0.9;0.9;;;;;;;9.2;100.0;99990;;;;
2022/12/22 04:07:00;;;;;;;0.9;0.9;;;;;;;9.2;100.0;99990;;;;
2022/12/22 04:08:00;;;;;;;0.9;0.9;;;;;;;9.2;100.0;99980;;;;
2022/12/22 04:09:00;;;;;;;0.9;0.9;;;;;;;9.2;100.0;99980;;;;
2022/12/22 04:13:00;;;;;;;1.2;1.2;;;;;;;9.3;100.0;99980;;;;
2022/12/22 04:14:00;;;;;;;1.2;1.2;;;;;;;9.2;100.0;99970;;;;
2022/12/22 04:15:00;;;;;;;1.2;1.2;;;;;;;9.2;100.0;99970;;;;
2022/12/22 04:16:00;;;;;;;1.2;1.2;;;;;;;9.1;100.0;99970;;;;
2022/12/22 04:17:01;;;;;;;1.2;1.2;;;;;;;9.1;100.0;99970;;;;
2022/12/22 04:18:00;;;;;;;1.2;1.2;;;;;;;9.1;100.0;99970;;;;
2022/12/22 04:19:00;;;;;;;1.2;1.2;;;;;;;9.1;100.0;99970;;;;
2022/12/22 04:20:00;;;;;;;1.2;1.2;;;;;;;9.1;100.0;99960;;;;
2022/12/22 04:21:00;;;;;;;1.2;1.2;;;;;;;9.1;100.0;99960;;;;
2022/12/22 04:22:00;;;;;;;1.2;1.2;;;;;;;9.1;100.0;99960;;;;
2022/12/22 04:23:00;;;;;;;1.2;1.2;;;;;;;9.1;100.0;99960;;;;
2022/12/22 04:24:00;;;;;;;1.2;1.2;;;;;;;9.1;100.0;99960;;;;
2022/12/22 04:25:00;;;;;;;1.2;1.2;;;;;;;9.1;100.0;99960;;;;
2022/12/22 04:26:00;;;;;;;1.2;1.2;;;;;;;9.1;100.0;99960;;;;
2022/12/22 04:27:00;;;;;;;1.2;1.2;;;;;;;9.1;100.0;99960;;;;
2022/12/22 04:28:00;;;;;;;1.2;1.2;;;;;;;9.1;100.0;99960;;;;
2022/12/22 04:29:00;;;;;;;1.2;1.2;;;;;;;9.1;100.0;99960;;;;
2022/12/22 04:30:00;;;;;;;1.2;1.2;;;;;;;9.1;100.0;99960;;;;
2022/12/22 04:31:00;;;;;;;1.2;1.2;;;;;;;9.1;100.0;99960;;;;
2022/12/22 04:32:00;;;;;;;0.8;0.8;;;;;;;9.1;100.0;99960;;;;
2022/12/22 04:33:00;;;;;;;0.8;0.8;;;;;;;9.1;100.0;99960;;;;
2022/12/22 04:34:00;;;;;;;0.8;0.8;;;;;;;9.1;100.0;99960;;;;
2022/12/22 04:35:00;;;;;;;0.8;0.8;;;;;;;9.1;100.0;99960;;;;
2022/12/22 04:36:00;;;;;;;0.8;0.8;;;;;;;9.1;100.0;99960;;;;
2022/12/22 04:37:10;;;;;;;0.8;0.8;;;;;;;9.1;100.0;99960;;;;
2022/12/22 04:38:00;;;;;;;0.8;0.8;;;;;;;9.1;100.0;99960;;;;
2022/12/22 04:39:00;;;;;;;0.8;0.8;;;;;;;9.1;100.0;99960;;;;
2022/12/22 04:40:00;;;;;;;0.8;0.8;;;;;;;9.1;100.0;99970;;;;
2022/12/22 04:41:00;;;;;;;0.8;0.8;;;;;;;9.1;100.0;99970;;;;
2022/12/22 04:42:00;;;;;;;0.8;0.8;;;;;;;9.1;100.0;99980;;;;
2022/12/22 04:43:00;;;;;;;0.8;0.8;;;;;;;9.1;100.0;99980;;;;
2022/12/22 04:44:00;;;;;;;0.8;0.8;;;;;;;9.1;100.0;99980;;;;
2022/12/22 04:45:00;;;;;;;0.8;0.8;;;;;;;9.1;100.0;99980;;;;
2022/12/22 04:46:00;;;;;;;0.8;0.8;;;;;;;9.1;100.0;99990;;;;
2022/12/22 04:47:00;;;;;;;0.8;0.8;;;;;;;9.1;100.0;99990;;;;
2022/12/22 04:48:00;;;;;;;0.8;0.8;;;;;;;9.1;100.0;99990;;;;
2022/12/22 04:49:00;;;;;;;0.8;0.8;;;;;;;9.1;100.0;99990;;;;
2022/12/22 04:50:00;;;;;;;0.8;0.8;;;;;;;9.0;100.0;99990;;;;
2022/12/22 04:51:00;;;;;;;0.8;0.8;;;;;;;9.0;100.0;99990;;;;
2022/12/22 04:52:00;;;;;;;1.2;1.2;;;;;;;9.1;100.0;99990;;;;
2022/12/22 04:53:00;;;;;;;1.2;1.2;;;;;;;9.1;100.0;99990;;;;
2022/12/22 04:54:00;;;;;;;1.2;1.2;;;;;;;9.1;100.0;99990;;;;
2022/12/22 04:55:00;;;;;;;1.2;1.2;;;;;;;9.1;100.0;99990;;;;
2022/12/22 04:56:03;;;;;;;1.2;1.2;;;;;;;9.1;100.0;99980;;;;
2022/12/22 04:57:00;;;;;;;1.2;1.2;;;;;;;9.1;100.0;99980;;;;
2022/12/22 04:58:00;;;;;;;1.2;1.2;;;;;;;9.0;100.0;99980;;;;
2022/12/22 04:59:00;;;;;;;1.2;1.2;;;;;;;9.0;100.0;99980;;;;
2022/12/22 05:00:00;;;;;;;1.2;1.2;;;;;;;9.1;100.0;99980;;;;
2022/12/22 05:01:09;;;;;;;1.2;1.2;;;;;;;9.1;100.0;99980;;;;
2022/12/22 05:02:00;;;;;;;1.2;1.2;;;;;;;9.2;100.0;99980;;;;
2022/12/22 05:03:00;;;;;;;1.2;1.2;;;;;;;9.2;100.0;99980;;;;
2022/12/22 05:04:00;;;;;;;1.2;1.2;;;;;;;9.1;100.0;99980;;;;
2022/12/22 05:05:00;;;;;;;1.2;1.2;;;;;;;9.1;100.0;99980;;;;
2022/12/22 05:06:00;;;;;;;1.2;1.2;;;;;;;9.2;100.0;99980;;;;
2022/12/22 05:07:00;;;;;;;1.2;1.2;;;;;;;9.2;100.0;99980;;;;
2022/12/22 05:08:00;;;;;;;1.2;1.2;;;;;;;9.2;100.0;99980;;;;
2022/12/22 05:09:00;;;;;;;1.2;1.2;;;;;;;9.2;100.0;99980;;;;
2022/12/22 05:10:00;;;;;;;1.2;1.2;;;;;;;9.2;100.0;99980;;;;
2022/12/22 05:11:01;;;;;;;1.2;1.2;;;;;;;9.2;100.0;99980;;;;
2022/12/22 05:12:53;;;;;;;1.1;1.1;;;;;;;9.1;100.0;99990;;;;
2022/12/22 05:13:00;;;;;;;1.1;1.1;;;;;;;9.1;100.0;99990;;;;
2022/12/22 05:14:07;;;;;;;1.1;1.1;;;;;;;9.1;100.0;99990;;;;
2022/12/22 05:15:00;;;;;;;1.1;1.1;;;;;;;9.1;100.0;99990;;;;
2022/12/22 05:16:04;;;;;;;1.1;1.1;;;;;;;9.1;100.0;99990;;;;
2022/12/22 05:17:00;;;;;;;1.1;1.1;;;;;;;9.1;100.0;99990;;;;
2022/12/22 05:18:00;;;;;;;1.1;1.1;;;;;;;9.1;100.0;99990;;;;
2022/12/22 05:19:00;;;;;;;1.1;1.1;;;;;;;9.1;100.0;99990;;;;
2022/12/22 05:20:00;;;;;;;1.1;1.1;;;;;;;9.1;100.0;99990;;;;
2022/12/22 05:21:02;;;;;;;1.1;1.1;;;;;;;9.1;100.0;99990;;;;
2022/12/22 05:22:00;;;;;;;1.1;1.1;;;;;;;9.0;100.0;99990;;;;
2022/12/22 05:23:00;;;;;;;1.1;1.1;;;;;;;9.0;100.0;99990;;;;
2022/12/22 05:24:00;;;;;;;1.1;1.1;;;;;;;9.1;100.0;99990;;;;
2022/12/22 05:25:00;;;;;;;1.1;1.1;;;;;;;9.1;100.0;99990;;;;
2022/12/22 05:26:00;;;;;;;1.1;1.1;;;;;;;9.1;100.0;99980;;;;
2022/12/22 05:27:00;;;;;;;1.1;1.1;;;;;;;9.1;100.0;99980;;;;
2022/12/22 05:28:00;;;;;;;1.1;1.1;;;;;;;9.1;100.0;99990;;;;
2022/12/22 05:29:00;;;;;;;1.1;1.1;;;;;;;9.1;100.0;99990;;;;
2022/12/22 05:30:00;;;;;;;1.1;1.1;;;;;;;9.0;100.0;99990;;;;
2022/12/22 05:31:02;;;;;;;1.1;1.1;;;;;;;9.0;100.0;99990;;;;
2022/12/22 05:32:00;;;;;;;1.0;1.0;;;;;;;9.0;100.0;99990;;;;
2022/12/22 05:33:00;;;;;;;1.0;1.0;;;;;;;9.0;100.0;99990;;;;
2022/12/22 05:34:00;;;;;;;1.0;1.0;;;;;;;9.1;100.0;99990;;;;
2022/12/22 05:35:01;;;;;;;1.0;1.0;;;;;;;9.1;100.0;99990;;;;
2022/12/22 05:36:00;;;;;;;1.0;1.0;;;;;;;9.1;100.0;99990;;;;
2022/12/22 05:37:00;;;;;;;1.0;1.0;;;;;;;9.1;100.0;99990;;;;
2022/12/22 05:38:00;;;;;;;1.0;1.0;;;;;;;9.1;100.0;99990;;;;
2022/12/22 05:39:00;;;;;;;1.0;1.0;;;;;;;9.1;100.0;99990;;;;
2022/12/22 05:40:00;;;;;;;1.0;1.0;;;;;;;9.0;100.0;99990;;;;
2022/12/22 05:41:04;;;;;;;1.0;1.0;;;;;;;9.0;100.0;99990;;;;
2022/12/22 05:42:00;;;;;;;1.0;1.0;;;;;;;9.1;100.0;100000;;;;
2022/12/22 05:43:00;;;;;;;1.0;1.0;;;;;;;9.1;100.0;100000;;;;
2022/12/22 05:44:00;;;;;;;1.0;1.0;;;;;;;9.1;100.0;100000;;;;
2022/12/22 05:45:02;;;;;;;1.0;1.0;;;;;;;9.1;100.0;100000;;;;
2022/12/22 05:46:01;;;;;;;1.0;1.0;;;;;;;9.1;100.0;100010;;;;
2022/12/22 05:47:00;;;;;;;1.0;1.0;;;;;;;9.1;100.0;100010;;;;
2022/12/22 05:48:00;;;;;;;1.0;1.0;;;;;;;9.1;100.0;100010;;;;
2022/12/22 05:49:00;;;;;;;1.0;1.0;;;;;;;9.1;100.0;100010;;;;
2022/12/22 05:50:00;;;;;;;1.0;1.0;;;;;;;9.1;100.0;100010;;;;
2022/12/22 05:51:00;;;;;;;1.0;1.0;;;;;;;9.1;100.0;100010;;;;
2022/12/22 05:52:00;;;;;;;0.9;0.9;;;;;;;9.1;100.0;100010;;;;
2022/12/22 05:53:00;;;;;;;0.9;0.9;;;;;;;9.1;100.0;100010;;;;
2022/12/22 05:54:00;;;;;;;0.9;0.9;;;;;;;9.1;100.0;100010;;;;
2022/12/22 05:55:00;;;;;;;0.9;0.9;;;;;;;9.1;100.0;100010;;;;
2022/12/22 05:56:00;;;;;;;0.9;0.9;;;;;;;9.1;100.0;100010;;;;
2022/12/22 05:57:00;;;;;;;0.9;0.9;;;;;;;9.1;100.0;100010;;;;
2022/12/22 05:58:00;;;;;;;0.9;0.9;;;;;;;9.1;100.0;100010;;;;
2022/12/22 05:59:00;;;;;;;0.9;0.9;;;;;;;9.1;100.0;100010;;;;
2022/12/22 06:00:00;;;;;;;0.9;0.9;;;;;;;9.1;100.0;100020;;;;
2022/12/22 06:01:00;;;;;;;0.9;0.9;;;;;;;9.1;100.0;100020;;;;
2022/12/22 06:02:00;;;;;;;0.9;0.9;;;;;;;9.2;100.0;100020;;;;
2022/12/22 06:03:00;;;;;;;0.9;0.9;;;;;;;9.2;100.0;100020;;;;
2022/12/22 06:04:01;;;;;;;0.9;0.9;;;;;;;9.2;100.0;100020;;;;
2022/12/22 06:05:00;;;;;;;0.9;0.9;;;;;;;9.2;100.0;100020;;;;
2022/12/22 06:06:00;;;;;;;0.9;0.9;;;;;;;9.2;100.0;100030;;;;
2022/12/22 06:07:00;;;;;;;0.9;0.9;;;;;;;9.2;100.0;100030;;;;
2022/12/22 06:08:00;;;;;;;0.9;0.9;;;;;;;9.2;100.0;100030;;;;
2022/12/22 06:09:00;;;;;;;0.9;0.9;;;;;;;9.2;100.0;100030;;;;
2022/12/22 06:10:02;;;;;;;0.9;0.9;;;;;;;9.2;100.0;100040;;;;
2022/12/22 06:11:00;;;;;;;0.9;0.9;;;;;;;9.2;100.0;100040;;;;
2022/12/22 06:12:00;;;;;;;1.1;1.1;;;;;;;9.2;100.0;100040;;;;
2022/12/22 06:13:00;;;;;;;1.1;1.1;;;;;;;9.2;100.0;100040;;;;
2022/12/22 06:14:00;;;;;;;1.1;1.1;;;;;;;9.2;100.0;100040;;;;
2022/12/22 06:15:00;;;;;;;1.1;1.1;;;;;;;9.2;100.0;100040;;;;
2022/12/22 06:16:00;;;;;;;1.1;1.1;;;;;;;9.2;100.0;100040;;;;
2022/12/22 06:17:00;;;;;;;1.1;1.1;;;;;;;9.2;100.0;100040;;;;
2022/12/22 06:18:00;;;;;;;1.1;1.1;;;;;;;9.1;100.0;100040;;;;
2022/12/22 06:19:00;;;;;;;1.1;1.1;;;;;;;9.1;100.0;100040;;;;
2022/12/22 06:20:00;;;;;;;1.1;1.1;;;;;;;9.2;100.0;100050;;;;
2022/12/22 06:21:00;;;;;;;1.1;1.1;;;;;;;9.2;100.0;100050;;;;
2022/12/22 06:22:00;;;;;;;1.1;1.1;;;;;;;9.2;100.0;100050;;;;
2022/12/22 06:23:00;;;;;;;1.1;1.1;;;;;;;9.2;100.0;100050;;;;
2022/12/22 06:24:00;;;;;;;1.1;1.1;;;;;;;9.1;100.0;100060;;;;
2022/12/22 06:25:00;;;;;;;1.1;1.1;;;;;;;9.1;100.0;100060;;;;
2022/12/22 06:26:00;;;;;;;1.1;1.1;;;;;;;9.1;100.0;100060;;;;
2022/12/22 06:27:00;;;;;;;1.1;1.1;;;;;;;9.1;100.0;100060;;;;
2022/12/22 06:28:00;;;;;;;1.1;1.1;;;;;;;9.1;100.0;100070;;;;
2022/12/22 06:29:00;;;;;;;1.1;1.1;;;;;;;9.1;100.0;100070;;;;
2022/12/22 06:30:00;;;;;;;1.1;1.1;;;;;;;9.2;100.0;100070;;;;
2022/12/22 06:31:00;;;;;;;1.1;1.1;;;;;;;9.2;100.0;100070;;;;
2022/12/22 06:32:00;;;;;;;0.9;0.9;;;;;;;9.2;100.0;100070;;;;
2022/12/22 06:33:00;;;;;;;0.9;0.9;;;;;;;9.2;100.0;100070;;;;
2022/12/22 06:34:00;;;;;;;0.9;0.9;;;;;;;9.2;100.0;100070;;;;
2022/12/22 06:35:00;;;;;;;0.9;0.9;;;;;;;9.2;100.0;100070;;;;
2022/12/22 06:36:03;;;;;;;0.9;0.9;;;;;;;9.1;100.0;100070;;;;
2022/12/22 06:37:00;;;;;;;0.9;0.9;;;;;;;9.1;100.0;100070;;;;
2022/12/22 06:38:00;;;;;;;0.9;0.9;;;;;;;9.1;100.0;100070;;;;
2022/12/22 06:39:00;;;;;;;0.9;0.9;;;;;;;9.1;100.0;100070;;;;
2022/12/22 06:40:00;;;;;;;0.9;0.9;;;;;;;9.2;100.0;100070;;;;
2022/12/22 06:41:00;;;;;;;0.9;0.9;;;;;;;9.2;100.0;100070;;;;
2022/12/22 06:43:08;;;;;;;0.9;0.9;;;;;;;9.2;100.0;100080;;;;
2022/12/22 06:44:00;;;;;;;0.9;0.9;;;;;;;9.1;100.0;100090;;;;
2022/12/22 06:45:00;;;;;;;0.9;0.9;;;;;;;9.1;100.0;100090;;;;
2022/12/22 06:46:00;;;;;;;0.9;0.9;;;;;;;9.1;100.0;100090;;;;
2022/12/22 06:47:00;;;;;;;0.9;0.9;;;;;;;9.1;100.0;100090;;;;
2022/12/22 06:48:00;;;;;;;0.9;0.9;;;;;;;9.2;100.0;100100;;;;
2022/12/22 06:49:00;;;;;;;0.9;0.9;;;;;;;9.2;100.0;100100;;;;
2022/12/22 06:50:00;;;;;;;0.9;0.9;;;;;;;9.2;100.0;100100;;;;
2022/12/22 06:51:00;;;;;;;0.9;0.9;;;;;;;9.2;100.0;100100;;;;
2022/12/22 06:52:00;;;;;;;1.1;1.1;;;;;;;9.2;100.0;100100;;;;
2022/12/22 06:53:00;;;;;;;1.1;1.1;;;;;;;9.2;100.0;100100;;;;
2022/12/22 06:54:00;;;;;;;1.1;1.1;;;;;;;9.2;100.0;100110;;;;
2022/12/22 06:55:01;;;;;;;1.1;1.1;;;;;;;9.2;100.0;100110;;;;
2022/12/22 06:56:00;;;;;;;1.1;1.1;;;;;;;9.2;100.0;100110;;;;
2022/12/22 06:57:00;;;;;;;1.1;1.1;;;;;;;9.2;100.0;100110;;;;
2022/12/22 06:58:00;;;;;;;1.1;1.1;;;;;;;9.2;100.0;100110;;;;
2022/12/22 06:59:00;;;;;;;1.1;1.1;;;;;;;9.2;100.0;100110;;;;
2022/12/22 07:00:00;;;;;;;1.1;1.1;;;;;;;9.2;100.0;100110;;;;
2022/12/22 07:01:00;;;;;;;1.1;1.1;;;;;;;9.2;100.0;100110;;;;
2022/12/22 07:02:00;;;;;;;1.1;1.1;;;;;;;9.1;100.0;100110;;;;
2022/12/22 07:03:00;;;;;;;1.1;1.1;;;;;;;9.1;100.0;100110;;;;
2022/12/22 07:04:00;;;;;;;1.1;1.1;;;;;;;9.1;100.0;100110;;;;
2022/12/22 07:05:00;;;;;;;1.1;1.1;;;;;;;9.1;100.0;100110;;;;
2022/12/22 07:06:00;;;;;;;1.1;1.1;;;;;;;9.1;100.0;100120;;;;
2022/12/22 07:07:00;;;;;;;1.1;1.1;;;;;;;9.1;100.0;100120;;;;
2022/12/22 07:08:08;;;;;;;1.1;1.1;;;;;;;9.2;100.0;100130;;;;
2022/12/22 07:09:00;;;;;;;1.1;1.1;;;;;;;9.2;100.0;100130;;;;
2022/12/22 07:10:00;;;;;;;1.1;1.1;;;;;;;9.1;100.0;100130;;;;
2022/12/22 07:11:00;;;;;;;1.1;1.1;;;;;;;9.1;100.0;100130;;;;
2022/12/22 07:12:00;;;;;;;0.9;0.9;;;;;;;9.1;100.0;100140;;;;
2022/12/22 07:13:17;;;;;;;0.9;0.9;;;;;;;9.1;100.0;100140;;;;
2022/12/22 07:14:00;;;;;;;0.9;0.9;;;;;;;9.1;100.0;100140;;;;
2022/12/22 07:15:00;;;;;;;0.9;0.9;;;;;;;9.1;100.0;100140;;;;
2022/12/22 07:16:02;;;;;;;0.9;0.9;;;;;;;9.1;100.0;100150;;;;
2022/12/22 07:17:00;;;;;;;0.9;0.9;;;;;;;9.1;100.0;100150;;;;
2022/12/22 07:18:00;;;;;;;0.9;0.9;;;;;;;9.1;100.0;100150;;;;
2022/12/22 07:19:00;;;;;;;0.9;0.9;;;;;;;9.1;100.0;100150;;;;
2022/12/22 07:20:00;;;;;;;0.9;0.9;;;;;;;9.2;100.0;100150;;;;
2022/12/22 07:21:01;;;;;;;0.9;0.9;;;;;;;9.2;100.0;100150;;;;
2022/12/22 07:22:00;;;;;;;0.9;0.9;;;;;;;9.1;100.0;100160;;;;
2022/12/22 07:23:00;;;;;;;0.9;0.9;;;;;;;9.1;100.0;100160;;;;
2022/12/22 07:24:00;;;;;;;0.9;0.9;;;;;;;9.2;100.0;100160;;;;
2022/12/22 07:25:00;;;;;;;0.9;0.9;;;;;;;9.2;100.0;100160;;;;
2022/12/22 07:26:00;;;;;;;0.9;0.9;;;;;;;9.2;100.0;100160;;;;
2022/12/22 07:27:00;;;;;;;0.9;0.9;;;;;;;9.2;100.0;100160;;;;
2022/12/22 07:28:00;;;;;;;0.9;0.9;;;;;;;9.1;100.0;100160;;;;
2022/12/22 07:29:00;;;;;;;0.9;0.9;;;;;;;9.1;100.0;100160;;;;
2022/12/22 07:30:00;;;;;;;0.9;0.9;;;;;;;9.1;100.0;100150;;;;
2022/12/22 07:31:00;;;;;;;0.9;0.9;;;;;;;9.1;100.0;100150;;;;
2022/12/22 07:32:00;;;;;;;0.9;0.9;;;;;;;9.2;100.0;100160;;;;
2022/12/22 07:33:00;;;;;;;0.9;0.9;;;;;;;9.2;100.0;100160;;;;
2022/12/22 07:34:00;;;;;;;0.9;0.9;;;;;;;9.2;100.0;100160;;;;
2022/12/22 07:35:06;;;;;;;0.9;0.9;;;;;;;9.2;100.0;100160;;;;
2022/12/22 07:36:02;;;;;;;0.9;0.9;;;;;;;9.1;100.0;100150;;;;
2022/12/22 07:37:00;;;;;;;0.9;0.9;;;;;;;9.1;100.0;100150;;;;
2022/12/22 07:38:00;;;;;;;0.9;0.9;;;;;;;9.1;100.0;100150;;;;
2022/12/22 07:39:01;;;;;;;0.9;0.9;;;;;;;9.1;100.0;100150;;;;
2022/12/22 07:40:00;;;;;;;0.9;0.9;;;;;;;9.1;100.0;100150;;;;
2022/12/22 07:42:43;;;;;;;0.9;0.9;;;;;;;9.1;100.0;100150;;;;
2022/12/22 07:43:00;;;;;;;0.9;0.9;;;;;;;9.0;100.0;100150;;;;
2022/12/22 07:44:00;;;;;;;0.9;0.9;;;;;;;9.1;100.0;100150;;;;
2022/12/22 07:45:00;;;;;;;0.9;0.9;;;;;;;9.1;100.0;100150;;;;
2022/12/22 07:46:00;;;;;;;0.9;0.9;;;;;;;9.0;100.0;100160;;;;
2022/12/22 07:47:00;;;;;;;0.9;0.9;;;;;;;9.0;100.0;100160;;;;
2022/12/22 07:50:23;;;;;;;0.9;0.9;;;;;;;9.1;100.0;100170;;;;
2022/12/22 07:51:03;;;;;;;1.5;1.5;;;;;;;9.0;100.0;100170;;;;
2022/12/22 07:52:00;;;;;;;1.5;1.5;;;;;;;9.0;100.0;100180;;;;
2022/12/22 07:53:01;;;;;;;1.5;1.5;;;;;;;9.0;100.0;100180;;;;
2022/12/22 07:54:00;;;;;;;1.5;1.5;;;;;;;8.9;100.0;100190;;;;
2022/12/22 07:55:00;;;;;;;1.5;1.5;;;;;;;8.9;100.0;100190;;;;
2022/12/22 07:56:00;;;;;;;1.5;1.5;;;;;;;9.0;100.0;100200;;;;
2022/12/22 07:57:00;;;;;;;1.5;1.5;;;;;;;9.0;100.0;100200;;;;
2022/12/22 07:58:00;;;;;;;1.5;1.5;;;;;;;9.0;100.0;100210;;;;
2022/12/22 07:59:00;;;;;;;1.5;1.5;;;;;;;9.0;100.0;100210;;;;
2022/12/22 08:00:00;;;;;;;1.5;1.5;;;;;;;8.9;100.0;100210;;;;
2022/12/22 08:01:00;;;;;;;1.5;1.5;;;;;;;8.9;100.0;100210;;;;
2022/12/22 08:02:00;;;;;;;1.5;1.5;;;;;;;9.0;100.0;100210;;;;
2022/12/22 08:03:01;;;;;;;1.5;1.5;;;;;;;9.0;100.0;100210;;;;
2022/12/22 08:04:00;;;;;;;1.5;1.5;;;;;;;8.9;100.0;100220;;;;
2022/12/22 08:05:00;;;;;;;1.5;1.5;;;;;;;8.9;100.0;100220;;;;
2022/12/22 08:06:02;;;;;;;1.5;1.5;;;;;;;8.9;100.0;100230;;;;
2022/12/22 08:07:00;;;;;;;1.5;1.5;;;;;;;8.9;100.0;100230;;;;
2022/12/22 08:08:00;;;;;;;1.5;1.5;;;;;;;8.9;100.0;100220;;;;
2022/12/22 08:09:01;;;;;;;1.5;1.5;;;;;;;8.9;100.0;100220;;;;
2022/12/22 08:10:00;;;;;;;1.5;1.5;;;;;;;8.8;100.0;100230;;;;
2022/12/22 08:11:01;;;;;;;1.5;1.5;;;;;;;8.8;100.0;100230;;;;
2022/12/22 08:12:00;;;;;;;1.5;1.5;;;;;;;8.9;100.0;100240;;;;
2022/12/22 08:13:00;;;;;;;1.5;1.5;;;;;;;8.9;100.0;100240;;;;
2022/12/22 08:14:02;;;;;;;1.5;1.5;;;;;;;8.8;100.0;100240;;;;
2022/12/22 08:15:00;;;;;;;1.5;1.5;;;;;;;8.8;100.0;100240;;;;
2022/12/22 08:16:09;;;;;;;1.5;1.5;;;;;;;8.7;100.0;100250;;;;
2022/12/22 08:17:00;;;;;;;1.5;1.5;;;;;;;8.7;100.0;100250;;;;
2022/12/22 08:18:00;;;;;;;1.5;1.5;;;;;;;8.8;100.0;100260;;;;
2022/12/22 08:19:00;;;;;;;1.5;1.5;;;;;;;8.8;100.0;100260;;;;
2022/12/22 08:20:00;;;;;;;1.5;1.5;;;;;;;8.8;100.0;100260;;;;
2022/12/22 08:21:00;;;;;;;1.5;1.5;;;;;;;8.8;100.0;100260;;;;
2022/12/22 08:22:01;;;;;;;1.5;1.5;;;;;;;8.7;100.0;100260;;;;
2022/12/22 08:23:00;;;;;;;1.5;1.5;;;;;;;8.7;100.0;100260;;;;
2022/12/22 08:24:00;;;;;;;1.5;1.5;;;;;;;8.8;100.0;100270;;;;
2022/12/22 08:25:00;;;;;;;1.5;1.5;;;;;;;8.8;100.0;100270;;;;
2022/12/22 08:26:07;;;;;;;1.5;1.5;;;;;;;8.8;100.0;100260;;;;
2022/12/22 08:27:04;;;;;;;1.5;1.5;;;;;;;8.8;100.0;100260;;;;
2022/12/22 08:28:01;;;;;;;1.5;1.5;;;;;;;8.7;100.0;100270;;;;
2022/12/22 08:29:04;;;;;;;1.5;1.5;;;;;;;8.7;100.0;100270;;;;
2022/12/22 08:30:01;;;;;;;1.5;1.5;;;;;;;8.7;100.0;100270;;;;
2022/12/22 08:31:00;;;;;;;1.0;1.0;;;;;;;8.7;100.0;100270;;;;
2022/12/22 08:32:01;;;;;;;1.0;1.0;;;;;;;8.7;100.0;100270;;;;
2022/12/22 08:34:02;;;;;;;1.0;1.0;;;;;;;8.7;100.0;100270;;;;
2022/12/22 08:35:00;;;;;;;1.0;1.0;;;;;;;8.7;100.0;100270;;;;
2022/12/22 08:36:08;;;;;;;1.0;1.0;;;;;;;8.8;100.0;100270;;;;
2022/12/22 08:37:03;;;;;;;1.0;1.0;;;;;;;8.8;100.0;100270;;;;
2022/12/22 08:38:00;;;;;;;1.0;1.0;;;;;;;8.7;100.0;100280;;;;
2022/12/22 08:39:00;;;;;;;1.0;1.0;;;;;;;8.7;100.0;100280;;;;
2022/12/22 08:40:01;;;;;;;1.0;1.0;;;;;;;8.7;100.0;100280;;;;
2022/12/22 08:41:00;;;;;;;1.0;1.0;;;;;;;8.7;100.0;100280;;;;
2022/12/22 08:42:02;;;;;;;1.0;1.0;;;;;;;8.8;100.0;100280;;;;
2022/12/22 08:43:03;;;;;;;1.0;1.0;;;;;;;8.8;100.0;100280;;;;
2022/12/22 08:44:00;;;;;;;1.0;1.0;;;;;;;8.8;100.0;100290;;;;
2022/12/22 08:45:00;;;;;;;1.0;1.0;;;;;;;8.8;100.0;100290;;;;
2022/12/22 08:46:00;;;;;;;1.0;1.0;;;;;;;8.8;100.0;100300;;;;
2022/12/22 08:47:00;;;;;;;1.0;1.0;;;;;;;8.8;100.0;100300;;;;
2022/12/22 08:48:00;;;;;;;1.0;1.0;;;;;;;8.7;100.0;100300;;;;
2022/12/22 08:49:00;;;;;;;1.0;1.0;;;;;;;8.7;100.0;100300;;;;
2022/12/22 08:50:00;;;;;;;1.0;1.0;;;;;;;8.7;100.0;100310;;;;
2022/12/22 08:51:00;;;;;;;1.0;1.0;;;;;;;8.7;100.0;100310;;;;
2022/12/22 08:52:00;;;;;;;1.0;1.0;;;;;;;8.8;100.0;100310;;;;
2022/12/22 08:53:02;;;;;;;1.0;1.0;;;;;;;8.8;100.0;100310;;;;
2022/12/22 08:54:06;;;;;;;1.0;1.0;;;;;;;8.7;100.0;100320;;;;
2022/12/22 08:55:00;;;;;;;1.0;1.0;;;;;;;8.7;100.0;100320;;;;
2022/12/22 08:56:00;;;;;;;1.0;1.0;;;;;;;8.6;100.0;100320;;;;
2022/12/22 08:57:00;;;;;;;1.0;1.0;;;;;;;8.6;100.0;100320;;;;
2022/12/22 08:58:00;;;;;;;1.0;1.0;;;;;;;8.6;100.0;100330;;;;
2022/12/22 08:59:06;;;;;;;1.0;1.0;;;;;;;8.6;100.0;100330;;;;
2022/12/22 09:00:00;;;;;;;1.0;1.0;;;;;;;8.6;100.0;100340;;;;
2022/12/22 09:01:00;;;;;;;1.0;1.0;;;;;;;8.6;100.0;100340;;;;
2022/12/22 09:02:03;;;;;;;1.0;1.0;;;;;;;8.6;100.0;100340;;;;
2022/12/22 09:03:01;;;;;;;1.0;1.0;;;;;;;8.6;100.0;100340;;;;
2022/12/22 09:04:00;;;;;;;1.0;1.0;;;;;;;8.6;100.0;100340;;;;
2022/12/22 09:05:00;;;;;;;1.0;1.0;;;;;;;8.6;100.0;100340;;;;
2022/12/22 09:06:00;;;;;;;1.0;1.0;;;;;;;8.5;100.0;100340;;;;
2022/12/22 09:07:01;;;;;;;1.0;1.0;;;;;;;8.5;100.0;100340;;;;
2022/12/22 09:08:01;;;;;;;1.0;1.0;;;;;;;8.6;100.0;100340;;;;
2022/12/22 09:09:02;;;;;;;1.0;1.0;;;;;;;8.6;100.0;100340;;;;
2022/12/22 09:10:00;;;;;;;1.0;1.0;;;;;;;8.5;100.0;100340;;;;
2022/12/22 09:11:02;;;;;;;1.5;1.5;;;;;;;8.5;100.0;100340;;;;
2022/12/22 09:12:01;;;;;;;1.5;1.5;;;;;;;8.6;100.0;100350;;;;
2022/12/22 09:13:00;;;;;;;1.5;1.5;;;;;;;8.6;100.0;100350;;;;
2022/12/22 09:14:01;;;;;;;1.5;1.5;;;;;;;8.5;100.0;100360;;;;
2022/12/22 09:15:00;;;;;;;1.5;1.5;;;;;;;8.5;100.0;100360;;;;
2022/12/22 09:16:04;;;;;;;1.5;1.5;;;;;;;8.6;100.0;100360;;;;
2022/12/22 09:17:00;;;;;;;1.5;1.5;;;;;;;8.6;100.0;100360;;;;
2022/12/22 09:18:00;;;;;;;1.5;1.5;;;;;;;8.5;100.0;100370;;;;
2022/12/22 09:19:00;;;;;;;1.5;1.5;;;;;;;8.5;100.0;100370;;;;
2022/12/22 09:20:01;;;;;;;1.5;1.5;;;;;;;8.4;100.0;100380;;;;
2022/12/22 09:21:00;;;;;;;1.5;1.5;;;;;;;8.4;100.0;100380;;;;
2022/12/22 09:22:00;;;;;;;1.5;1.5;;;;;;;8.4;100.0;100370;;;;
2022/12/22 09:23:00;;;;;;;1.5;1.5;;;;;;;8.4;100.0;100370;;;;
2022/12/22 09:24:01;;;;;;;1.5;1.5;;;;;;;8.5;100.0;100370;;;;
2022/12/22 09:25:00;;;;;;;1.5;1.5;;;;;;;8.5;100.0;100370;;;;
2022/12/22 09:26:05;;;;;;;1.5;1.5;;;;;;;8.3;100.0;100370;;;;
2022/12/22 09:27:02;;;;;;;1.5;1.5;;;;;;;8.3;100.0;100370;;;;
2022/12/22 09:28:00;;;;;;;1.5;1.5;;;;;;;8.4;100.0;100370;;;;
2022/12/22 09:29:01;;;;;;;1.5;1.5;;;;;;;8.4;100.0;100370;;;;
2022/12/22 09:30:00;;;;;;;1.5;1.5;;;;;;;8.3;100.0;100380;;;;
2022/12/22 09:31:00;;;;;;;2.6;2.5;;;;;;;8.3;100.0;100380;;;;
2022/12/22 09:32:00;;;;;;;2.6;2.5;;;;;;;8.3;100.0;100380;;;;
2022/12/22 09:33:00;;;;;;;2.6;2.5;;;;;;;8.3;100.0;100380;;;;
2022/12/22 09:34:00;;;;;;;2.6;2.5;;;;;;;8.3;100.0;100390;;;;
2022/12/22 09:35:00;;;;;;;2.6;2.5;;;;;;;8.3;100.0;100390;;;;
2022/12/22 09:36:04;;;;;;;2.6;2.5;;;;;;;8.2;100.0;100390;;;;
2022/12/22 09:37:00;;;;;;;2.6;2.5;;;;;;;8.2;100.0;100390;;;;
2022/12/22 09:38:00;;;;;;;2.6;2.5;;;;;;;8.2;100.0;100390;;;;
2022/12/22 09:39:04;;;;;;;2.6;2.5;;;;;;;8.2;100.0;100390;;;;
2022/12/22 09:40:01;;;;;;;2.6;2.5;;;;;;;8.2;100.0;100390;;;;
2022/12/22 09:41:10;;;;;;;2.6;2.5;;;;;;;8.2;100.0;100390;;;;
2022/12/22 09:42:00;;;;;;;2.6;2.5;;;;;;;8.2;100.0;100390;;;;
2022/12/22 09:43:02;;;;;;;2.6;2.5;;;;;;;8.2;100.0;100390;;;;
2022/12/22 09:44:02;;;;;;;2.6;2.5;;;;;;;8.3;100.0;100390;;;;
2022/12/22 09:45:00;;;;;;;2.6;2.5;;;;;;;8.3;100.0;100390;;;;
2022/12/22 09:46:01;;;;;;;2.6;2.5;;;;;;;8.3;100.0;100400;;;;
2022/12/22 09:47:02;;;;;;;2.6;2.5;;;;;;;8.3;100.0;100400;;;;
2022/12/22 09:48:01;;;;;;;2.6;2.5;;;;;;;8.3;100.0;100390;;;;
2022/12/22 09:49:00;;;;;;;2.6;2.5;;;;;;;8.3;100.0;100390;;;;
2022/12/22 09:50:01;;;;;;;2.6;2.5;;;;;;;8.3;100.0;100400;;;;
2022/12/22 09:51:01;;;;;;;1.4;1.4;;;;;;;8.3;100.0;100400;;;;
2022/12/22 09:52:02;;;;;;;1.4;1.4;;;;;;;8.4;100.0;100400;;;;
2022/12/22 09:53:02;;;;;;;1.4;1.4;;;;;;;8.4;100.0;100400;;;;
2022/12/22 09:54:01;;;;;;;1.4;1.4;;;;;;;8.5;100.0;100400;;;;
2022/12/22 09:55:01;;;;;;;1.4;1.4;;;;;;;8.5;100.0;100400;;;;
2022/12/22 09:56:00;;;;;;;1.4;1.4;;;;;;;8.5;100.0;100410;;;;
2022/12/22 09:57:00;;;;;;;1.4;1.4;;;;;;;8.5;100.0;100410;;;;
2022/12/22 09:58:00;;;;;;;1.4;1.4;;;;;;;8.5;100.0;100400;;;;
2022/12/22 09:59:00;;;;;;;1.4;1.4;;;;;;;8.5;100.0;100400;;;;
2022/12/22 10:00:05;;;;;;;1.4;1.4;;;;;;;8.5;100.0;100400;;;;
2022/12/22 10:01:01;;;;;;;1.4;1.4;;;;;;;8.5;100.0;100400;;;;
2022/12/22 10:02:10;;;;;;;1.4;1.4;;;;;;;8.5;100.0;100410;;;;
2022/12/22 10:03:00;;;;;;;1.4;1.4;;;;;;;8.5;100.0;100410;;;;
2022/12/22 10:04:10;;;;;;;1.4;1.4;;;;;;;8.6;100.0;100400;;;;
2022/12/22 10:05:10;;;;;;;1.4;1.4;;;;;;;8.6;100.0;100400;;;;
2022/12/22 10:06:04;;;;;;;1.4;1.4;;;;;;;8.5;100.0;100410;;;;
2022/12/22 10:07:10;;;;;;;1.4;1.4;;;;;;;8.5;100.0;100410;;;;
2022/12/22 10:08:01;;;;;;;1.4;1.4;;;;;;;8.5;100.0;100410;;;;
2022/12/22 10:09:21;;;;;;;1.4;1.4;;;;;;;8.5;100.0;100410;;;;
2022/12/22 10:10:10;;;;;;;1.4;1.4;;;;;;;8.5;100.0;100410;;;;